sensor_id;sensor_type;location;lat;lon;timestamp;pressure;altitude;pressure_sealevel;temperature;humidity
70015;BME280;57358;51.094;6.760;2023-01-28T00:00:35;102212.53;;;1.55;100.00
70015;BME280;57358;51.094;6.760;2023-01-28T00:03:01;102188.22;;;1.38;100.00
70015;BME280;57358;51.094;6.760;2023-01-28T00:05:27;102243.75;;;1.71;100.00
70015;BME280;57358;51.094;6.760;2023-01-28T00:07:55;102189.03;;;1.31;100.00
70015;BME280;57358;51.094;6.760;2023-01-28T00:10:23;102214.09;;;1.36;100.00
70015;BME280;57358;51.094;6.760;2023-01-28T00:12:49;102200.88;;;1.10;100.00
70015;BME280;57358;51.094;6.760;2023-01-28T00:15:16;102241.59;;;1.30;100.00
70015;BME280;57358;51.094;6.760;2023-01-28T00:17:42;102276.38;;;1.58;100.00
70015;BME280;57358;51.094;6.760;2023-01-28T00:20:09;102275.50;;;1.56;100.00
70015;BME280;57358;51.094;6.760;2023-01-28T00:22:35;102219.03;;;1.18;100.00
70015;BME280;57358;51.094;6.760;2023-01-28T00:25:02;102250.22;;;1.29;100.00
70015;BME280;57358;51.094;6.760;2023-01-28T00:27:28;102248.53;;;1.34;100.00
70015;BME280;57358;51.094;6.760;2023-01-28T00:29:56;102263.28;;;1.44;100.00
70015;BME280;57358;51.094;6.760;2023-01-28T00:32:22;102140.16;;;0.76;100.00
70015;BME280;57358;51.094;6.760;2023-01-28T00:34:48;102201.72;;;1.09;100.00
70015;BME280;57358;51.094;6.760;2023-01-28T00:37:15;102207.84;;;1.17;100.00
70015;BME280;57358;51.094;6.760;2023-01-28T00:39:41;102213.13;;;1.28;100.00
70015;BME280;57358;51.094;6.760;2023-01-28T00:42:08;102113.50;;;0.78;100.00
70015;BME280;57358;51.094;6.760;2023-01-28T00:44:34;102239.19;;;1.45;100.00
70015;BME280;57358;51.094;6.760;2023-01-28T00:47:01;102210.38;;;1.13;100.00
70015;BME280;57358;51.094;6.760;2023-01-28T00:49:27;102185.16;;;0.90;100.00
70015;BME280;57358;51.094;6.760;2023-01-28T00:51:54;102177.25;;;0.79;100.00
70015;BME280;57358;51.094;6.760;2023-01-28T00:54:20;101950.84;;;-0.61;100.00
70015;BME280;57358;51.094;6.760;2023-01-28T00:56:47;102159.69;;;0.54;100.00
70015;BME280;57358;51.094;6.760;2023-01-28T00:59:13;102241.34;;;1.08;100.00
70015;BME280;57358;51.094;6.760;2023-01-28T01:01:40;102196.28;;;0.88;100.00
70015;BME280;57358;51.094;6.760;2023-01-28T01:04:06;102133.75;;;0.45;100.00
70015;BME280;57358;51.094;6.760;2023-01-28T01:06:35;102238.88;;;1.17;100.00
70015;BME280;57358;51.094;6.760;2023-01-28T01:09:04;102155.59;;;0.70;100.00
70015;BME280;57358;51.094;6.760;2023-01-28T01:11:34;102227.69;;;1.18;100.00
70015;BME280;57358;51.094;6.760;2023-01-28T01:14:00;102258.91;;;1.37;100.00
70015;BME280;57358;51.094;6.760;2023-01-28T01:16:32;102197.19;;;0.90;100.00
70015;BME280;57358;51.094;6.760;2023-01-28T01:18:58;102110.56;;;0.49;100.00
70015;BME280;57358;51.094;6.760;2023-01-28T01:21:28;102280.59;;;1.50;100.00
70015;BME280;57358;51.094;6.760;2023-01-28T01:23:55;102282.34;;;1.51;100.00
70015;BME280;57358;51.094;6.760;2023-01-28T01:26:22;102171.25;;;0.81;100.00
70015;BME280;57358;51.094;6.760;2023-01-28T01:28:50;102028.25;;;0.02;100.00
70015;BME280;57358;51.094;6.760;2023-01-28T01:31:18;102194.63;;;0.93;100.00
70015;BME280;57358;51.094;6.760;2023-01-28T01:33:47;102218.97;;;1.10;100.00
70015;BME280;57358;51.094;6.760;2023-01-28T01:36:15;102205.88;;;0.98;100.00
70015;BME280;57358;51.094;6.760;2023-01-28T01:38:42;102242.31;;;1.18;100.00
70015;BME280;57358;51.094;6.760;2023-01-28T01:41:19;102292.59;;;1.42;100.00
70015;BME280;57358;51.094;6.760;2023-01-28T01:43:56;102271.81;;;1.32;100.00
70015;BME280;57358;51.094;6.760;2023-01-28T01:46:29;102251.84;;;1.21;100.00
70015;BME280;57358;51.094;6.760;2023-01-28T01:49:04;102269.25;;;1.35;100.00
70015;BME280;57358;51.094;6.760;2023-01-28T01:51:32;102164.16;;;0.66;100.00
70015;BME280;57358;51.094;6.760;2023-01-28T01:53:59;102290.78;;;1.36;100.00
70015;BME280;57358;51.094;6.760;2023-01-28T01:56:32;102210.94;;;0.87;100.00
70015;BME280;57358;51.094;6.760;2023-01-28T01:59:00;102210.88;;;0.83;100.00
70015;BME280;57358;51.094;6.760;2023-01-28T02:01:28;102203.88;;;0.74;100.00
70015;BME280;57358;51.094;6.760;2023-01-28T02:04:04;102313.19;;;1.32;100.00
70015;BME280;57358;51.094;6.760;2023-01-28T02:06:33;102283.81;;;1.27;100.00
70015;BME280;57358;51.094;6.760;2023-01-28T02:09:01;102163.97;;;0.52;100.00
70015;BME280;57358;51.094;6.760;2023-01-28T02:11:31;102239.41;;;0.89;100.00
70015;BME280;57358;51.094;6.760;2023-01-28T02:14:01;102292.34;;;1.22;100.00
70015;BME280;57358;51.094;6.760;2023-01-28T02:16:30;101999.94;;;-0.56;100.00
70015;BME280;57358;51.094;6.760;2023-01-28T02:19:00;102203.72;;;0.62;100.00
70015;BME280;57358;51.094;6.760;2023-01-28T02:21:51;102234.88;;;0.72;100.00
70015;BME280;57358;51.094;6.760;2023-01-28T02:27:13;102299.16;;;1.13;100.00
70015;BME280;57358;51.094;6.760;2023-01-28T02:32:52;101965.03;;;-0.92;100.00
70015;BME280;57358;51.094;6.760;2023-01-28T02:35:30;102306.09;;;1.17;100.00
70015;BME280;57358;51.094;6.760;2023-01-28T02:38:10;102274.00;;;0.98;100.00
70015;BME280;57358;51.094;6.760;2023-01-28T02:40:38;102306.97;;;1.16;100.00
70015;BME280;57358;51.094;6.760;2023-01-28T02:43:38;102232.28;;;0.71;100.00
70015;BME280;57358;51.094;6.760;2023-01-28T02:46:19;102315.59;;;1.17;100.00
70015;BME280;57358;51.094;6.760;2023-01-28T02:49:09;102121.97;;;0.01;100.00
70015;BME280;57358;51.094;6.760;2023-01-28T02:57:10;102073.34;;;-0.31;100.00
70015;BME280;57358;51.094;6.760;2023-01-28T02:59:48;102289.41;;;0.94;100.00
70015;BME280;57358;51.094;6.760;2023-01-28T03:02:45;102312.91;;;1.11;100.00
70015;BME280;57358;51.094;6.760;2023-01-28T03:05:28;102244.31;;;0.70;100.00
70015;BME280;57358;51.094;6.760;2023-01-28T03:07:56;102320.72;;;1.12;100.00
70015;BME280;57358;51.094;6.760;2023-01-28T03:10:25;102267.66;;;0.76;100.00
70015;BME280;57358;51.094;6.760;2023-01-28T03:12:55;102280.78;;;0.92;100.00
70015;BME280;57358;51.094;6.760;2023-01-28T03:15:46;102193.06;;;0.37;100.00
70015;BME280;57358;51.094;6.760;2023-01-28T03:18:39;102321.56;;;1.13;100.00
70015;BME280;57358;51.094;6.760;2023-01-28T03:21:34;102330.19;;;1.13;100.00
70015;BME280;57358;51.094;6.760;2023-01-28T03:24:26;102319.81;;;1.10;100.00
70015;BME280;57358;51.094;6.760;2023-01-28T03:27:33;102095.81;;;-0.22;100.00
70015;BME280;57358;51.094;6.760;2023-01-28T03:30:26;102123.53;;;-0.10;100.00
70015;BME280;57358;51.094;6.760;2023-01-28T03:33:15;102208.69;;;0.48;100.00
70015;BME280;57358;51.094;6.760;2023-01-28T03:36:01;102082.84;;;-0.28;100.00
70015;BME280;57358;51.094;6.760;2023-01-28T03:38:46;102200.03;;;0.43;100.00
70015;BME280;57358;51.094;6.760;2023-01-28T03:41:20;102319.84;;;1.13;100.00
70015;BME280;57358;51.094;6.760;2023-01-28T03:43:48;102286.84;;;0.92;100.00
70015;BME280;57358;51.094;6.760;2023-01-28T03:46:15;102317.22;;;1.10;100.00
70015;BME280;57358;51.094;6.760;2023-01-28T03:48:42;102249.50;;;0.70;100.00
70015;BME280;57358;51.094;6.760;2023-01-28T03:51:08;102119.25;;;-0.10;100.00
70015;BME280;57358;51.094;6.760;2023-01-28T03:53:35;102187.81;;;0.31;100.00
70015;BME280;57358;51.094;6.760;2023-01-28T03:56:01;102225.94;;;0.49;100.00
70015;BME280;57358;51.094;6.760;2023-01-28T03:58:28;102032.41;;;-0.67;100.00
70015;BME280;57358;51.094;6.760;2023-01-28T04:01:26;102285.88;;;0.87;100.00
70015;BME280;57358;51.094;6.760;2023-01-28T04:03:53;102239.72;;;0.49;100.00
70015;BME280;57358;51.094;6.760;2023-01-28T04:06:19;102277.91;;;0.72;100.00
70015;BME280;57358;51.094;6.760;2023-01-28T04:08:45;102196.28;;;0.21;100.00
70015;BME280;57358;51.094;6.760;2023-01-28T04:11:18;102086.13;;;-0.38;100.00
70015;BME280;57358;51.094;6.760;2023-01-28T04:13:47;102170.13;;;-0.01;100.00
70015;BME280;57358;51.094;6.760;2023-01-28T04:16:15;102189.31;;;0.18;100.00
70015;BME280;57358;51.094;6.760;2023-01-28T04:18:43;102335.22;;;1.04;100.00
70015;BME280;57358;51.094;6.760;2023-01-28T04:21:10;102326.53;;;0.99;100.00
70015;BME280;57358;51.094;6.760;2023-01-28T04:23:37;102298.66;;;0.75;100.00
70015;BME280;57358;51.094;6.760;2023-01-28T04:26:04;102341.19;;;1.00;100.00
70015;BME280;57358;51.094;6.760;2023-01-28T04:28:30;102276.78;;;0.53;100.00
70015;BME280;57358;51.094;6.760;2023-01-28T04:30:57;102303.44;;;0.49;100.00
70015;BME280;57358;51.094;6.760;2023-01-28T04:33:23;102264.72;;;0.52;100.00
70015;BME280;57358;51.094;6.760;2023-01-28T04:35:49;102303.75;;;0.70;100.00
70015;BME280;57358;51.094;6.760;2023-01-28T04:38:16;102147.34;;;-0.28;100.00
70015;BME280;57358;51.094;6.760;2023-01-28T04:40:42;102197.72;;;0.03;100.00
70015;BME280;57358;51.094;6.760;2023-01-28T04:43:09;102267.09;;;0.38;100.00
70015;BME280;57358;51.094;6.760;2023-01-28T04:45:35;102290.53;;;0.52;100.00
70015;BME280;57358;51.094;6.760;2023-01-28T04:48:01;102324.31;;;0.63;100.00
70015;BME280;57358;51.094;6.760;2023-01-28T04:50:28;102367.69;;;0.85;100.00
70015;BME280;57358;51.094;6.760;2023-01-28T04:52:54;102308.59;;;0.49;100.00
70015;BME280;57358;51.094;6.760;2023-01-28T04:55:21;102365.13;;;0.85;100.00
70015;BME280;57358;51.094;6.760;2023-01-28T04:57:47;102288.63;;;0.38;100.00
70015;BME280;57358;51.094;6.760;2023-01-28T05:00:14;102187.69;;;-0.33;100.00
70015;BME280;57358;51.094;6.760;2023-01-28T05:02:41;102357.31;;;0.82;100.00
70015;BME280;57358;51.094;6.760;2023-01-28T05:05:07;102253.09;;;0.24;100.00
70015;BME280;57358;51.094;6.760;2023-01-28T05:07:34;102247.84;;;0.17;100.00
70015;BME280;57358;51.094;6.760;2023-01-28T05:10:01;102352.09;;;0.79;100.00
70015;BME280;57358;51.094;6.760;2023-01-28T05:12:27;102249.59;;;0.18;100.00
70015;BME280;57358;51.094;6.760;2023-01-28T05:14:55;102361.59;;;0.78;100.00
70015;BME280;57358;51.094;6.760;2023-01-28T05:17:21;102052.47;;;-1.01;100.00
70015;BME280;57358;51.094;6.760;2023-01-28T05:19:48;102054.97;;;-1.06;100.00
70015;BME280;57358;51.094;6.760;2023-01-28T05:22:14;102192.03;;;-0.29;100.00
70015;BME280;57358;51.094;6.760;2023-01-28T05:24:40;102292.00;;;0.36;100.00
70015;BME280;57358;51.094;6.760;2023-01-28T05:27:07;102239.97;;;0.10;100.00
70015;BME280;57358;51.094;6.760;2023-01-28T05:29:33;102255.47;;;0.10;100.00
70015;BME280;57358;51.094;6.760;2023-01-28T05:32:00;102323.31;;;0.56;100.00
70015;BME280;57358;51.094;6.760;2023-01-28T05:34:27;102237.38;;;0.10;100.00
70015;BME280;57358;51.094;6.760;2023-01-28T05:36:53;102343.41;;;0.72;100.00
70015;BME280;57358;51.094;6.760;2023-01-28T05:39:19;102269.56;;;0.30;100.00
70015;BME280;57358;51.094;6.760;2023-01-28T05:41:46;102027.31;;;-1.14;100.00
70015;BME280;57358;51.094;6.760;2023-01-28T05:44:12;102113.34;;;-0.57;100.00
70015;BME280;57358;51.094;6.760;2023-01-28T05:46:38;102344.28;;;0.76;100.00
70015;BME280;57358;51.094;6.760;2023-01-28T05:49:11;102347.72;;;0.73;100.00
70015;BME280;57358;51.094;6.760;2023-01-28T05:51:39;102324.13;;;0.52;100.00
70015;BME280;57358;51.094;6.760;2023-01-28T05:54:07;102211.03;;;-0.24;100.00
70015;BME280;57358;51.094;6.760;2023-01-28T05:56:34;102314.31;;;0.29;100.00
70015;BME280;57358;51.094;6.760;2023-01-28T05:59:02;102257.03;;;0.02;100.00
70015;BME280;57358;51.094;6.760;2023-01-28T06:01:29;102247.47;;;-0.04;100.00
70015;BME280;57358;51.094;6.760;2023-01-28T06:03:55;102337.59;;;0.34;100.00
70015;BME280;57358;51.094;6.760;2023-01-28T06:06:22;102177.09;;;-0.49;100.00
70015;BME280;57358;51.094;6.760;2023-01-28T06:08:48;102345.69;;;0.54;100.00
70015;BME280;57358;51.094;6.760;2023-01-28T06:11:15;102356.00;;;0.52;100.00
70015;BME280;57358;51.094;6.760;2023-01-28T06:13:42;102343.88;;;0.47;98.63
70015;BME280;57358;51.094;6.760;2023-01-28T06:16:09;102270.91;;;0.07;97.59
70015;BME280;57358;51.094;6.760;2023-01-28T06:18:35;102354.22;;;0.50;97.25
70015;BME280;57358;51.094;6.760;2023-01-28T06:21:02;102273.56;;;0.11;97.01
70015;BME280;57358;51.094;6.760;2023-01-28T06:23:28;102297.91;;;0.27;96.27
70015;BME280;57358;51.094;6.760;2023-01-28T06:25:55;102255.34;;;0.04;96.02
70015;BME280;57358;51.094;6.760;2023-01-28T06:28:22;102290.16;;;0.27;95.69
70015;BME280;57358;51.094;6.760;2023-01-28T06:30:51;102311.81;;;0.35;95.88
70015;BME280;57358;51.094;6.760;2023-01-28T06:33:18;102360.53;;;0.67;95.43
70015;BME280;57358;51.094;6.760;2023-01-28T06:35:45;102370.81;;;0.64;95.23
70015;BME280;57358;51.094;6.760;2023-01-28T06:38:11;102089.59;;;-0.90;92.73
70015;BME280;57358;51.094;6.760;2023-01-28T06:40:38;102175.59;;;-0.34;92.24
70015;BME280;57358;51.094;6.760;2023-01-28T06:43:05;102293.81;;;0.38;92.45
70015;BME280;57358;51.094;6.760;2023-01-28T06:45:32;102329.47;;;0.63;92.69
70015;BME280;57358;51.094;6.760;2023-01-28T06:47:58;102283.41;;;0.35;93.28
70015;BME280;57358;51.094;6.760;2023-01-28T06:50:25;102282.31;;;0.21;93.47
70015;BME280;57358;51.094;6.760;2023-01-28T06:52:51;102383.63;;;0.56;94.19
70015;BME280;57358;51.094;6.760;2023-01-28T06:55:18;102338.53;;;0.37;94.39
70015;BME280;57358;51.094;6.760;2023-01-28T06:57:44;102313.38;;;0.24;93.63
70015;BME280;57358;51.094;6.760;2023-01-28T07:00:11;102355.09;;;0.49;93.27
70015;BME280;57358;51.094;6.760;2023-01-28T07:02:40;102309.94;;;0.25;93.23
70015;BME280;57358;51.094;6.760;2023-01-28T07:05:07;102238.75;;;-0.14;92.13
70015;BME280;57358;51.094;6.760;2023-01-28T07:07:34;102271.88;;;0.13;91.01
70015;BME280;57358;51.094;6.760;2023-01-28T07:10:00;102331.00;;;0.51;90.87
70015;BME280;57358;51.094;6.760;2023-01-28T07:12:27;102225.84;;;-0.14;91.24
70015;BME280;57358;51.094;6.760;2023-01-28T07:14:53;102160.75;;;-0.49;90.51
70015;BME280;57358;51.094;6.760;2023-01-28T07:17:19;102265.69;;;0.04;90.94
70015;BME280;57358;51.094;6.760;2023-01-28T07:19:46;102307.94;;;0.09;92.19
70015;BME280;57358;51.094;6.760;2023-01-28T07:22:15;102327.47;;;0.45;92.52
70015;BME280;57358;51.094;6.760;2023-01-28T07:24:41;102216.25;;;-0.21;93.30
70015;BME280;57358;51.094;6.760;2023-01-28T07:27:07;102264.75;;;-0.02;94.14
70015;BME280;57358;51.094;6.760;2023-01-28T07:29:34;102287.31;;;0.10;94.56
70015;BME280;57358;51.094;6.760;2023-01-28T07:32:00;102256.03;;;-0.08;93.59
70015;BME280;57358;51.094;6.760;2023-01-28T07:34:27;102257.72;;;-0.10;92.70
70015;BME280;57358;51.094;6.760;2023-01-28T07:36:53;102280.38;;;0.08;91.34
70015;BME280;57358;51.094;6.760;2023-01-28T07:39:22;102234.38;;;-0.18;91.06
70015;BME280;57358;51.094;6.760;2023-01-28T07:41:49;102260.41;;;-0.03;90.39
70015;BME280;57358;51.094;6.760;2023-01-28T07:44:15;102317.91;;;0.39;89.63
70015;BME280;57358;51.094;6.760;2023-01-28T07:46:41;102319.56;;;0.35;88.58
70015;BME280;57358;51.094;6.760;2023-01-28T07:49:08;102308.31;;;0.30;89.20
70015;BME280;57358;51.094;6.760;2023-01-28T07:51:34;102302.22;;;0.27;89.15
70015;BME280;57358;51.094;6.760;2023-01-28T07:54:01;102316.94;;;0.34;89.04
70015;BME280;57358;51.094;6.760;2023-01-28T07:56:29;102330.75;;;0.36;89.25
70015;BME280;57358;51.094;6.760;2023-01-28T07:58:56;102059.75;;;-1.26;88.95
70015;BME280;57358;51.094;6.760;2023-01-28T08:01:22;102326.47;;;0.36;89.66
70015;BME280;57358;51.094;6.760;2023-01-28T08:03:49;102095.47;;;-0.97;89.38
70015;BME280;57358;51.094;6.760;2023-01-28T08:06:16;102117.25;;;-0.81;90.50
70015;BME280;57358;51.094;6.760;2023-01-28T08:08:42;102187.44;;;-0.47;89.98
70015;BME280;57358;51.094;6.760;2023-01-28T08:11:09;102319.47;;;0.29;90.24
70015;BME280;57358;51.094;6.760;2023-01-28T08:13:35;102271.41;;;-0.16;89.67
70015;BME280;57358;51.094;6.760;2023-01-28T08:16:02;102346.47;;;0.48;89.69
70015;BME280;57358;51.094;6.760;2023-01-28T08:18:29;102316.94;;;0.32;89.31
70015;BME280;57358;51.094;6.760;2023-01-28T08:20:56;102341.22;;;0.44;88.26
70015;BME280;57358;51.094;6.760;2023-01-28T08:23:24;102151.78;;;-0.71;86.27
70015;BME280;57358;51.094;6.760;2023-01-28T08:25:52;102338.72;;;0.50;85.77
70015;BME280;57358;51.094;6.760;2023-01-28T08:28:20;102332.81;;;0.57;85.16
70015;BME280;57358;51.094;6.760;2023-01-28T08:30:46;102294.59;;;0.36;83.77
70015;BME280;57358;51.094;6.760;2023-01-28T08:33:14;102237.41;;;0.11;83.61
70015;BME280;57358;51.094;6.760;2023-01-28T08:35:41;102289.59;;;0.45;82.88
70015;BME280;57358;51.094;6.760;2023-01-28T08:38:10;102282.84;;;0.55;82.27
70015;BME280;57358;51.094;6.760;2023-01-28T08:40:37;102219.44;;;0.17;82.73
70015;BME280;57358;51.094;6.760;2023-01-28T08:43:03;102216.59;;;-0.01;84.10
70015;BME280;57358;51.094;6.760;2023-01-28T08:45:30;102361.28;;;0.60;83.48
70015;BME280;57358;51.094;6.760;2023-01-28T08:47:59;102196.63;;;-0.11;82.39
70015;BME280;57358;51.094;6.760;2023-01-28T08:50:29;102262.63;;;0.26;82.12
70015;BME280;57358;51.094;6.760;2023-01-28T08:52:59;102311.44;;;0.67;82.89
70015;BME280;57358;51.094;6.760;2023-01-28T08:55:27;102260.06;;;0.29;82.71
70015;BME280;57358;51.094;6.760;2023-01-28T08:57:53;102208.94;;;0.05;81.65
70015;BME280;57358;51.094;6.760;2023-01-28T09:00:22;102321.13;;;0.81;82.20
70015;BME280;57358;51.094;6.760;2023-01-28T09:02:52;102321.09;;;0.79;81.86
70015;BME280;57358;51.094;6.760;2023-01-28T09:05:19;102248.03;;;0.30;81.83
70015;BME280;57358;51.094;6.760;2023-01-28T09:07:46;102301.84;;;0.58;81.59
70015;BME280;57358;51.094;6.760;2023-01-28T09:10:13;102323.59;;;0.73;81.28
70015;BME280;57358;51.094;6.760;2023-01-28T09:12:42;102325.47;;;0.83;80.28
70015;BME280;57358;51.094;6.760;2023-01-28T09:15:09;102309.06;;;0.81;79.35
70015;BME280;57358;51.094;6.760;2023-01-28T09:17:36;102311.78;;;0.92;79.17
70015;BME280;57358;51.094;6.760;2023-01-28T09:20:03;102238.78;;;0.44;78.46
70015;BME280;57358;51.094;6.760;2023-01-28T09:22:31;102251.81;;;0.50;78.45
70015;BME280;57358;51.094;6.760;2023-01-28T09:24:57;102317.81;;;0.91;78.93
70015;BME280;57358;51.094;6.760;2023-01-28T09:27:23;102236.03;;;0.33;78.99
70015;BME280;57358;51.094;6.760;2023-01-28T09:29:50;102321.88;;;0.73;79.44
70015;BME280;57358;51.094;6.760;2023-01-28T09:32:16;102260.19;;;0.37;79.64
70015;BME280;57358;51.094;6.760;2023-01-28T09:34:43;102330.41;;;0.68;79.75
70015;BME280;57358;51.094;6.760;2023-01-28T09:37:12;102237.56;;;0.21;79.52
70015;BME280;57358;51.094;6.760;2023-01-28T09:39:38;102293.16;;;0.53;79.60
70015;BME280;57358;51.094;6.760;2023-01-28T09:42:10;102326.22;;;0.74;80.08
70015;BME280;57358;51.094;6.760;2023-01-28T09:44:48;102321.13;;;0.81;79.50
70015;BME280;57358;51.094;6.760;2023-01-28T09:47:40;102295.81;;;0.59;79.74
70015;BME280;57358;51.094;6.760;2023-01-28T09:50:14;102253.50;;;0.48;78.49
70015;BME280;57358;51.094;6.760;2023-01-28T09:52:44;102319.50;;;0.89;78.91
70015;BME280;57358;51.094;6.760;2023-01-28T09:55:24;102305.63;;;0.81;78.27
70015;BME280;57358;51.094;6.760;2023-01-28T09:57:54;102311.69;;;0.83;77.71
70015;BME280;57358;51.094;6.760;2023-01-28T10:00:33;102293.41;;;0.72;77.63
70015;BME280;57358;51.094;6.760;2023-01-28T10:03:46;102311.72;;;0.87;78.07
70015;BME280;57358;51.094;6.760;2023-01-28T10:06:50;102317.72;;;0.83;78.06
70015;BME280;57358;51.094;6.760;2023-01-28T10:09:22;102310.78;;;0.82;77.84
70015;BME280;57358;51.094;6.760;2023-01-28T10:17:29;102306.53;;;0.86;78.09
70015;BME280;57358;51.094;6.760;2023-01-28T10:20:16;102332.53;;;0.95;79.25
70015;BME280;57358;51.094;6.760;2023-01-28T10:23:15;102329.13;;;0.99;79.13
70015;BME280;57358;51.094;6.760;2023-01-28T10:25:45;102343.06;;;1.09;79.04
70015;BME280;57358;51.094;6.760;2023-01-28T10:28:19;102275.50;;;0.84;78.07
70015;BME280;57358;51.094;6.760;2023-01-28T10:30:47;102235.75;;;0.73;77.25
70015;BME280;57358;51.094;6.760;2023-01-28T10:33:21;102256.78;;;1.02;75.49
70015;BME280;57358;51.094;6.760;2023-01-28T10:35:49;102175.28;;;0.60;74.84
70015;BME280;57358;51.094;6.760;2023-01-28T10:38:19;102272.50;;;1.19;75.80
70015;BME280;57358;51.094;6.760;2023-01-28T10:40:47;102175.13;;;0.46;75.27
70015;BME280;57358;51.094;6.760;2023-01-28T10:43:18;102194.22;;;0.59;75.70
70015;BME280;57358;51.094;6.760;2023-01-28T10:46:03;102189.78;;;0.49;75.66
70015;BME280;57358;51.094;6.760;2023-01-28T10:48:58;102228.16;;;0.85;74.86
70015;BME280;57358;51.094;6.760;2023-01-28T10:51:32;102170.06;;;0.55;74.20
70015;BME280;57358;51.094;6.760;2023-01-28T10:53:59;102244.59;;;0.93;75.48
70015;BME280;57358;51.094;6.760;2023-01-28T10:56:30;102184.63;;;0.52;76.41
70015;BME280;57358;51.094;6.760;2023-01-28T10:59:19;102275.09;;;1.19;76.29
70015;BME280;57358;51.094;6.760;2023-01-28T11:01:51;102225.72;;;0.99;74.92
70015;BME280;57358;51.094;6.760;2023-01-28T11:04:30;102284.84;;;1.43;75.68
70015;BME280;57358;51.094;6.760;2023-01-28T11:07:18;102164.22;;;0.70;75.57
70015;BME280;57358;51.094;6.760;2023-01-28T11:09:51;102250.06;;;1.16;75.57
70015;BME280;57358;51.094;6.760;2023-01-28T11:12:22;102263.25;;;1.36;74.91
70015;BME280;57358;51.094;6.760;2023-01-28T11:14:57;102273.56;;;1.38;74.99
70015;BME280;57358;51.094;6.760;2023-01-28T11:17:26;102151.19;;;0.61;74.27
70015;BME280;57358;51.094;6.760;2023-01-28T11:19:56;102237.00;;;1.06;75.43
70015;BME280;57358;51.094;6.760;2023-01-28T11:22:35;102131.94;;;0.37;74.65
70015;BME280;57358;51.094;6.760;2023-01-28T11:25:14;102033.28;;;-0.06;74.55
70015;BME280;57358;51.094;6.760;2023-01-28T11:27:46;102211.09;;;1.01;74.06
70015;BME280;57358;51.094;6.760;2023-01-28T11:30:22;102199.19;;;1.12;72.99
70015;BME280;57358;51.094;6.760;2023-01-28T11:32:57;102108.19;;;0.68;72.17
70015;BME280;57358;51.094;6.760;2023-01-28T11:35:27;102200.97;;;1.19;72.99
70015;BME280;57358;51.094;6.760;2023-01-28T11:37:57;102125.38;;;0.64;73.73
70015;BME280;57358;51.094;6.760;2023-01-28T11:40:24;102215.34;;;0.96;73.82
70015;BME280;57358;51.094;6.760;2023-01-28T11:42:52;102144.41;;;0.71;74.24
70015;BME280;57358;51.094;6.760;2023-01-28T11:45:24;102128.78;;;0.62;73.66
70015;BME280;57358;51.094;6.760;2023-01-28T11:48:13;102130.59;;;0.67;73.13
70015;BME280;57358;51.094;6.760;2023-01-28T11:50:51;102202.50;;;1.04;73.70
70015;BME280;57358;51.094;6.760;2023-01-28T11:56:05;102185.28;;;1.03;73.21
70015;BME280;57358;51.094;6.760;2023-01-28T11:58:47;102185.28;;;1.06;73.40
70015;BME280;57358;51.094;6.760;2023-01-28T12:01:33;102190.44;;;1.01;74.62
70015;BME280;57358;51.094;6.760;2023-01-28T12:04:21;102201.53;;;0.94;75.30
70015;BME280;57358;51.094;6.760;2023-01-28T12:15:03;102173.22;;;1.03;74.68
70015;BME280;57358;51.094;6.760;2023-01-28T12:18:08;102166.31;;;1.01;74.29
70015;BME280;57358;51.094;6.760;2023-01-28T12:26:38;102185.34;;;1.12;74.19
70015;BME280;57358;51.094;6.760;2023-01-28T12:29:17;102169.81;;;1.07;74.33
70015;BME280;57358;51.094;6.760;2023-01-28T12:34:43;102083.13;;;0.59;73.54
70015;BME280;57358;51.094;6.760;2023-01-28T12:37:40;102096.16;;;0.70;73.63
70015;BME280;57358;51.094;6.760;2023-01-28T12:40:38;102025.97;;;0.28;74.07
70015;BME280;57358;51.094;6.760;2023-01-28T12:43:14;102054.44;;;0.34;74.12
70015;BME280;57358;51.094;6.760;2023-01-28T12:46:00;102122.22;;;0.88;73.89
70015;BME280;57358;51.094;6.760;2023-01-28T12:48:32;102143.09;;;1.07;74.95
70015;BME280;57358;51.094;6.760;2023-01-28T12:51:11;102150.94;;;1.17;74.39
70015;BME280;57358;51.094;6.760;2023-01-28T12:53:56;101975.22;;;0.30;73.40
70015;BME280;57358;51.094;6.760;2023-01-28T12:56:38;102042.13;;;0.88;73.24
70015;BME280;57358;51.094;6.760;2023-01-28T13:07:31;101965.69;;;1.26;70.50
70015;BME280;57358;51.094;6.760;2023-01-28T13:10:18;101958.13;;;1.53;70.23
70015;BME280;57358;51.094;6.760;2023-01-28T13:12:48;101867.31;;;1.06;69.31
70015;BME280;57358;51.094;6.760;2023-01-28T13:15:16;101980.69;;;1.82;69.13
70015;BME280;57358;51.094;6.760;2023-01-28T13:20:51;101967.84;;;2.07;68.58
70015;BME280;57358;51.094;6.760;2023-01-28T13:26:26;101954.13;;;2.46;67.80
70015;BME280;57358;51.094;6.760;2023-01-28T13:29:05;101716.59;;;1.21;66.44
70015;BME280;57358;51.094;6.760;2023-01-28T13:31:37;101955.84;;;2.50;66.62
70015;BME280;57358;51.094;6.760;2023-01-28T13:34:05;101930.78;;;2.31;66.56
70015;BME280;57358;51.094;6.760;2023-01-28T13:36:43;101846.91;;;1.67;66.18
70015;BME280;57358;51.094;6.760;2023-01-28T13:41:44;101903.97;;;2.01;65.97
70015;BME280;57358;51.094;6.760;2023-01-28T13:44:20;101852.06;;;1.58;67.29
70015;BME280;57358;51.094;6.760;2023-01-28T13:46:53;101940.16;;;1.89;67.30
70015;BME280;57358;51.094;6.760;2023-01-28T13:49:27;101944.47;;;1.90;67.41
70015;BME280;57358;51.094;6.760;2023-01-28T13:52:01;101939.31;;;1.93;67.86
70015;BME280;57358;51.094;6.760;2023-01-28T13:54:30;101933.22;;;1.80;68.18
70015;BME280;57358;51.094;6.760;2023-01-28T13:59:48;101908.97;;;1.59;68.06
70015;BME280;57358;51.094;6.760;2023-01-28T14:02:39;101889.63;;;0.90;69.52
70015;BME280;57358;51.094;6.760;2023-01-28T14:05:29;101931.09;;;1.08;69.53
70015;BME280;57358;51.094;6.760;2023-01-28T14:11:00;101913.88;;;1.07;69.65
70015;BME280;57358;51.094;6.760;2023-01-28T14:18:34;101993.50;;;1.54;70.79
70015;BME280;57358;51.094;6.760;2023-01-28T14:21:08;101975.31;;;1.41;70.49